Time;durP1;ratioP1;P1;durP2;ratioP2;P2;SDS_P1;SDS_P2;PMS_P1;PMS_P2;Temp;Humidity;BMP_temperature;BMP_pressure;BME280_temperature;BME280_humidity;BME280_pressure;Samples;Min_cycle;Max_cycle;Signal;HPM_P1;HPM_P2
2024/01/09 00:00:49;;;;;;;2.42;2.33;;;;;;;4.29;100.00;98178.41;5090689;28;20180;-56
2024/01/09 00:03:15;;;;;;;3.05;2.85;;;;;;;4.10;100.00;98130.69;5092116;28;20249;-56
2024/01/09 00:05:40;;;;;;;2.50;2.40;;;;;;;4.02;100.00;98110.56;5091987;28;20443;-56
2024/01/09 00:08:06;;;;;;;3.35;2.85;;;;;;;3.86;100.00;98089.16;5091161;28;20165;-56
2024/01/09 00:10:31;;;;;;;2.72;2.55;;;;;;;4.48;100.00;98184.31;5091643;28;20682;-56
2024/01/09 00:12:59;;;;;;;3.45;3.25;;;;;;;4.31;100.00;98163.78;5048956;28;20185;-56
2024/01/09 00:15:24;;;;;;;3.15;2.85;;;;;;;4.13;100.00;98139.06;5049098;28;20271;-56
2024/01/09 00:17:50;;;;;;;3.55;3.25;;;;;;;4.30;100.00;98146.75;5005242;28;1260428;-56
2024/01/09 00:20:16;;;;;;;2.78;2.58;;;;;;;3.94;100.00;98116.94;5049958;28;20185;-56
2024/01/09 00:22:42;;;;;;;2.85;2.65;;;;;;;4.17;100.00;98153.38;5049803;28;20186;-57
2024/01/09 00:25:08;;;;;;;2.95;2.75;;;;;;;4.09;100.00;98117.06;5049839;28;20753;-57
2024/01/09 00:27:34;;;;;;;2.88;2.67;;;;;;;4.71;100.00;98214.78;5049802;28;20223;-56
2024/01/09 00:30:19;;;;;;;3.20;3.00;;;;;;;4.66;100.00;98219.28;5010270;28;20211;-56
2024/01/09 00:32:49;;;;;;;2.72;2.53;;;;;;;4.21;100.00;98126.72;5010065;28;20194;-57
2024/01/09 00:35:15;;;;;;;3.00;2.80;;;;;;;4.73;100.00;98217.25;4993654;28;20211;-56
2024/01/09 00:37:41;;;;;;;4.00;3.70;;;;;;;4.73;100.00;98232.66;5007180;28;20226;-56
2024/01/09 00:40:08;;;;;;;3.30;2.88;;;;;;;4.60;100.00;98219.56;5007364;28;20274;-56
2024/01/09 00:42:34;;;;;;;8.10;4.88;;;;;;;4.10;100.00;98162.25;5009952;28;20701;-56
2024/01/09 00:45:02;;;;;;;8.65;5.53;;;;;;;4.42;100.00;98228.13;5047213;28;20181;-57
2024/01/09 00:47:28;;;;;;;13.73;8.10;;;;;;;3.76;100.00;98143.38;5009703;28;20187;-56
2024/01/09 00:49:53;;;;;;;14.55;7.57;;;;;;;3.83;100.00;98139.66;5006922;28;20221;-57
2024/01/09 00:52:19;;;;;;;8.73;5.97;;;;;;;4.17;100.00;98199.47;5009512;28;20649;-57
2024/01/09 00:54:45;;;;;;;5.53;4.50;;;;;;;4.35;100.00;98221.66;5005551;28;20202;-57
2024/01/09 00:57:11;;;;;;;7.00;4.68;;;;;;;3.93;100.00;98159.66;4974505;28;20269;-57
2024/01/09 00:59:37;;;;;;;6.75;5.55;;;;;;;4.08;100.00;98186.25;5008103;28;20671;-56
2024/01/09 01:02:03;;;;;;;5.20;4.32;;;;;;;4.19;100.00;98189.97;5009581;28;20191;-57
2024/01/09 01:04:29;;;;;;;9.00;6.57;;;;;;;3.96;100.00;98156.94;5008903;28;20226;-56
2024/01/09 01:06:55;;;;;;;16.02;8.43;;;;;;;4.10;100.00;98228.81;5015912;28;20188;-56
2024/01/09 01:09:20;;;;;;;11.70;8.15;;;;;;;3.88;100.00;98194.84;5049285;28;20186;-56
2024/01/09 01:11:46;;;;;;;9.82;7.68;;;;;;;3.78;100.00;98221.75;5046362;28;20213;-57
2024/01/09 01:14:11;;;;;;;11.07;8.68;;;;;;;3.81;100.00;98264.28;5049259;28;20185;-56
2024/01/09 01:16:37;;;;;;;10.32;8.30;;;;;;;3.45;100.00;98225.75;5049196;28;20193;-56
2024/01/09 01:19:02;;;;;;;9.50;7.18;;;;;;;3.63;100.00;98263.34;5080378;28;20234;-57
2024/01/09 01:21:28;;;;;;;10.90;7.32;;;;;;;3.53;100.00;98249.31;5092110;28;20223;-56
2024/01/09 01:23:53;;;;;;;7.95;7.05;;;;;;;3.76;100.00;98277.28;5091618;28;20989;-56
2024/01/09 01:26:19;;;;;;;9.07;7.18;;;;;;;3.42;100.00;98251.47;5091716;28;20176;-57
2024/01/09 01:28:44;;;;;;;7.93;6.80;;;;;;;3.41;100.00;98275.41;5091627;28;20180;-56
2024/01/09 01:31:10;;;;;;;6.60;6.00;;;;;;;3.36;100.00;98251.75;5091573;28;20204;-56
2024/01/09 01:33:35;;;;;;;6.38;5.78;;;;;;;3.26;100.00;98232.56;5091584;28;20168;-56
2024/01/09 01:36:01;;;;;;;6.90;5.72;;;;;;;3.05;100.00;98209.66;5091617;28;20172;-56
2024/01/09 01:38:26;;;;;;;5.63;5.13;;;;;;;3.07;100.00;98223.19;5048793;28;20348;-57
2024/01/09 01:40:52;;;;;;;6.28;5.10;;;;;;;2.95;100.00;98250.09;5049040;28;20193;-56
2024/01/09 01:43:17;;;;;;;6.60;5.25;;;;;;;3.31;100.00;98303.94;5048958;28;20675;-56
2024/01/09 01:45:43;;;;;;;8.93;6.57;;;;;;;2.79;100.00;98222.66;5048987;28;20582;-57
2024/01/09 01:48:09;;;;;;;6.95;5.63;;;;;;;2.72;100.00;98252.72;5048825;28;20194;-56
2024/01/09 01:50:36;;;;;;;5.88;5.32;;;;;;;2.92;100.00;98298.72;5048644;28;20206;-56
2024/01/09 01:53:04;;;;;;;6.28;5.63;;;;;;;2.44;100.00;98226.63;5048893;28;20211;-56
2024/01/09 01:55:30;;;;;;;8.23;5.97;;;;;;;2.80;100.00;98281.34;5048857;28;20192;-56
2024/01/09 01:57:58;;;;;;;8.18;6.25;;;;;;;2.02;100.00;98156.84;5048773;28;20182;-56
2024/01/09 02:00:25;;;;;;;7.32;6.03;;;;;;;2.25;100.00;98205.25;5048716;28;20276;-56
2024/01/09 02:02:52;;;;;;;5.60;5.07;;;;;;;2.06;100.00;98180.50;5048096;28;20174;-56
2024/01/09 02:05:20;;;;;;;5.20;4.70;;;;;;;2.51;100.00;98232.31;5048730;28;20265;-56
2024/01/09 02:07:46;;;;;;;5.22;4.72;;;;;;;2.57;100.00;98266.09;5008945;28;20184;-56
2024/01/09 02:10:12;;;;;;;9.25;6.85;;;;;;;2.24;100.00;98202.75;5038781;28;20205;-56
2024/01/09 02:12:38;;;;;;;6.00;4.55;;;;;;;2.50;100.00;98238.31;5048566;28;20196;-56
2024/01/09 02:15:04;;;;;;;6.22;4.90;;;;;;;2.42;100.00;98241.19;5050837;28;20173;-56
2024/01/09 02:17:31;;;;;;;5.53;4.65;;;;;;;2.07;100.00;98185.56;5051857;28;20213;-56
2024/01/09 02:19:58;;;;;;;5.10;4.60;;;;;;;1.91;100.00;98184.47;5052229;28;20671;-56
2024/01/09 02:22:24;;;;;;;6.20;5.03;;;;;;;2.45;100.00;98289.53;5052321;28;20838;-56
2024/01/09 02:24:49;;;;;;;6.25;5.40;;;;;;;2.44;100.00;98294.69;5052036;28;20185;-56
2024/01/09 02:27:24;;;;;;;7.03;5.47;;;;;;;2.59;100.00;98307.75;5051592;28;20585;-56
2024/01/09 02:29:50;;;;;;;6.68;5.93;;;;;;;2.11;100.00;98245.78;5052011;28;20204;-56
2024/01/09 02:32:16;;;;;;;7.20;6.45;;;;;;;2.19;100.00;98261.63;5051877;28;20206;-57
2024/01/09 02:34:44;;;;;;;11.60;7.45;;;;;;;2.15;100.00;98260.09;5052014;28;20936;-56
2024/01/09 02:37:10;;;;;;;9.50;7.32;;;;;;;1.67;100.00;98184.53;5051887;28;20771;-57
2024/01/09 02:39:36;;;;;;;10.07;7.30;;;;;;;2.14;100.00;98263.53;5087798;28;20267;-56
2024/01/09 02:42:01;;;;;;;10.75;7.82;;;;;;;1.87;100.00;98228.00;5094499;28;20226;-56
2024/01/09 02:44:27;;;;;;;9.77;7.43;;;;;;;1.66;100.00;98234.72;5094314;28;20188;-56
2024/01/09 02:46:53;;;;;;;10.05;8.10;;;;;;;1.93;100.00;98277.06;5094177;28;20172;-56
2024/01/09 02:49:18;;;;;;;9.70;7.50;;;;;;;2.08;100.00;98293.53;5094121;28;20641;-56
2024/01/09 02:51:43;;;;;;;8.45;7.50;;;;;;;2.03;100.00;98296.25;5094369;28;20196;-56
2024/01/09 02:54:09;;;;;;;9.73;8.05;;;;;;;2.03;100.00;98291.16;5093989;28;20180;-56
2024/01/09 02:56:37;;;;;;;11.02;8.43;;;;;;;1.98;100.00;98267.53;5094161;28;20164;-56
2024/01/09 02:59:03;;;;;;;11.38;8.73;;;;;;;1.78;100.00;98264.88;5094212;28;20283;-56
2024/01/09 03:01:28;;;;;;;14.43;8.93;;;;;;;1.91;100.00;98312.00;5093871;28;20234;-56
2024/01/09 03:03:54;;;;;;;9.75;8.10;;;;;;;1.94;100.00;98291.47;5094129;28;20215;-56
2024/01/09 03:06:19;;;;;;;10.98;8.55;;;;;;;2.04;100.00;98323.44;5094042;28;20169;-56
2024/01/09 03:08:44;;;;;;;9.45;8.10;;;;;;;1.74;100.00;98253.13;5094041;28;20180;-56
2024/01/09 03:11:10;;;;;;;10.05;8.05;;;;;;;1.87;100.00;98287.50;5093861;28;20605;-56
2024/01/09 03:13:35;;;;;;;10.82;8.23;;;;;;;2.09;100.00;98321.56;5093844;28;20603;-56
2024/01/09 03:16:01;;;;;;;9.52;7.85;;;;;;;1.59;100.00;98250.28;5093882;28;20173;-56
2024/01/09 03:18:26;;;;;;;9.40;7.60;;;;;;;1.62;100.00;98288.41;5093696;28;20558;-56
2024/01/09 03:20:52;;;;;;;11.55;7.90;;;;;;;1.32;100.00;98247.00;5093753;28;20668;-56
2024/01/09 03:23:17;;;;;;;10.95;8.00;;;;;;;1.79;100.00;98335.41;5093752;28;20556;-56
2024/01/09 03:25:43;;;;;;;10.43;8.35;;;;;;;1.84;100.00;98330.97;5092439;28;20631;-56
2024/01/09 03:28:08;;;;;;;12.68;8.68;;;;;;;1.87;100.00;98343.59;5070768;28;20218;-56
2024/01/09 03:30:34;;;;;;;10.98;8.50;;;;;;;1.63;100.00;98305.41;5070830;28;20742;-56
2024/01/09 03:32:59;;;;;;;9.30;7.90;;;;;;;1.62;100.00;98304.56;5070778;28;20668;-56
2024/01/09 03:35:25;;;;;;;10.05;8.90;;;;;;;1.94;100.00;98367.19;5070815;28;20177;-57
2024/01/09 03:37:50;;;;;;;13.63;9.02;;;;;;;1.86;100.00;98380.22;5070718;28;20189;-57
2024/01/09 03:40:16;;;;;;;12.50;8.93;;;;;;;1.30;100.00;98292.06;5070772;28;20177;-57
2024/01/09 03:42:41;;;;;;;11.80;8.10;;;;;;;1.79;100.00;98396.63;5070604;28;20311;-56
2024/01/09 03:45:07;;;;;;;11.85;8.18;;;;;;;1.62;100.00;98381.03;5070230;28;20234;-56
2024/01/09 03:47:33;;;;;;;9.60;7.60;;;;;;;1.38;100.00;98330.88;5070571;28;20181;-57
2024/01/09 03:49:58;;;;;;;10.23;8.10;;;;;;;1.39;100.00;98342.75;5070594;28;20675;-57
2024/01/09 03:52:24;;;;;;;11.98;7.72;;;;;;;1.09;100.00;98291.94;5070389;28;20208;-56
2024/01/09 03:54:49;;;;;;;9.27;7.15;;;;;;;1.58;100.00;98389.69;5070404;28;20284;-56
2024/01/09 03:57:15;;;;;;;10.00;7.68;;;;;;;1.57;100.00;98397.38;5070349;28;20188;-56
2024/01/09 03:59:42;;;;;;;9.75;8.00;;;;;;;1.44;100.00;98376.56;5086946;28;20253;-56
2024/01/09 04:02:07;;;;;;;9.13;7.35;;;;;;;1.55;100.00;98400.00;5092921;28;20565;-56
2024/01/09 04:04:33;;;;;;;9.73;7.78;;;;;;;1.09;100.00;98319.97;5092924;28;20174;-55
2024/01/09 04:06:58;;;;;;;11.15;8.60;;;;;;;0.86;100.00;98296.97;5092844;28;20196;-55
2024/01/09 04:09:24;;;;;;;12.98;7.75;;;;;;;1.62;100.00;98415.91;5092820;28;20569;-56
2024/01/09 04:11:49;;;;;;;10.20;7.60;;;;;;;1.37;100.00;98375.09;5092474;28;20208;-56
2024/01/09 04:14:15;;;;;;;10.85;7.57;;;;;;;1.64;100.00;98416.69;5092724;28;20168;-56
2024/01/09 04:16:47;;;;;;;11.43;8.52;;;;;;;1.54;100.00;98412.78;5092609;28;20185;-56
2024/01/09 04:19:12;;;;;;;10.63;8.70;;;;;;;1.20;100.00;98362.06;5092686;28;20184;-56
2024/01/09 04:21:38;;;;;;;12.05;9.13;;;;;;;1.12;100.00;98366.56;5092566;28;20236;-56
2024/01/09 04:24:03;;;;;;;12.77;8.77;;;;;;;1.24;100.00;98422.22;5092653;28;20196;-56
2024/01/09 04:26:29;;;;;;;12.80;8.98;;;;;;;1.30;100.00;98437.31;5092567;28;20647;-56
2024/01/09 04:28:54;;;;;;;14.05;9.02;;;;;;;0.78;100.00;98340.47;5092467;28;20168;-56
2024/01/09 04:31:24;;;;;;;11.30;8.55;;;;;;;1.21;100.00;98424.88;5092370;28;20221;-56
2024/01/09 04:33:50;;;;;;;12.38;8.63;;;;;;;0.58;100.00;98360.63;5092383;28;20195;-56
2024/01/09 04:36:17;;;;;;;12.77;9.32;;;;;;;0.84;100.00;98400.59;5092285;28;20635;-56
2024/01/09 04:38:42;;;;;;;11.60;9.50;;;;;;;1.00;100.00;98458.66;5091937;28;20176;-56
2024/01/09 04:41:08;;;;;;;12.15;9.68;;;;;;;0.93;100.00;98471.59;5092222;28;20172;-56
2024/01/09 04:43:33;;;;;;;12.93;9.82;;;;;;;1.02;100.00;98464.56;5092247;28;20701;-56
2024/01/09 04:45:59;;;;;;;14.68;10.43;;;;;;;0.71;100.00;98417.94;5091818;28;20195;-56
2024/01/09 04:48:24;;;;;;;20.60;11.80;;;;;;;0.29;100.00;98352.16;5092192;28;20164;-56
2024/01/09 04:50:49;;;;;;;14.70;10.75;;;;;;;0.87;100.00;98439.53;5092075;28;20200;-56
2024/01/09 04:53:15;;;;;;;12.20;9.85;;;;;;;1.07;100.00;98475.41;5092063;28;20196;-57
2024/01/09 04:55:40;;;;;;;13.82;10.32;;;;;;;0.88;100.00;98440.38;5092037;28;20172;-57
2024/01/09 04:58:06;;;;;;;13.10;9.63;;;;;;;0.43;100.00;98371.25;5092076;28;20237;-56
2024/01/09 05:00:31;;;;;;;14.07;9.88;;;;;;;0.53;100.00;98382.84;5092013;28;20706;-56
2024/01/09 05:02:57;;;;;;;12.60;9.25;;;;;;;0.57;100.00;98399.69;5049163;28;20531;-56
2024/01/09 05:05:22;;;;;;;14.52;10.10;;;;;;;1.21;100.00;98506.44;5049222;28;20189;-57
2024/01/09 05:07:48;;;;;;;14.40;9.27;;;;;;;1.09;100.00;98509.34;5049303;28;20181;-56
2024/01/09 05:10:14;;;;;;;12.07;9.27;;;;;;;0.62;100.00;98423.31;5049194;28;20213;-56
2024/01/09 05:12:39;;;;;;;12.50;9.30;;;;;;;1.05;100.00;98507.75;5049137;28;20224;-57
2024/01/09 05:15:05;;;;;;;16.65;10.60;;;;;;;0.86;100.00;98472.66;5049188;28;20177;-56
2024/01/09 05:17:31;;;;;;;15.25;9.73;;;;;;;1.34;100.00;98517.09;5048965;28;20205;-56
2024/01/09 05:19:56;;;;;;;13.52;9.52;;;;;;;0.97;100.00;98415.47;5049127;28;20579;-57
2024/01/09 05:22:22;;;;;;;15.18;10.80;;;;;;;0.70;100.00;98380.63;5049013;28;20564;-57
2024/01/09 05:24:47;;;;;;;13.32;10.95;;;;;;;1.01;100.00;98426.38;5049051;28;20308;-56
2024/01/09 05:27:12;;;;;;;19.63;12.52;;;;;;;0.79;100.00;98433.84;5048981;28;20185;-57
2024/01/09 05:29:38;;;;;;;15.15;10.75;;;;;;;1.31;100.00;98507.81;5048610;28;20186;-57
2024/01/09 05:32:05;;;;;;;16.20;10.77;;;;;;;1.22;100.00;98497.91;5048614;28;20212;-57
2024/01/09 05:34:30;;;;;;;14.73;10.40;;;;;;;1.40;100.00;98511.81;5073170;28;20708;-57
2024/01/09 05:36:56;;;;;;;17.67;11.20;;;;;;;0.85;100.00;98436.19;5091545;28;20211;-57
2024/01/09 05:39:21;;;;;;;18.42;11.05;;;;;;;1.19;100.00;98492.06;5091260;28;20586;-57
2024/01/09 05:41:47;;;;;;;14.75;10.70;;;;;;;1.04;100.00;98470.44;5090848;28;20241;-57
2024/01/09 05:44:12;;;;;;;15.40;11.18;;;;;;;1.37;100.00;98547.56;5090598;28;20184;-57
2024/01/09 05:46:40;;;;;;;19.15;11.43;;;;;;;1.25;100.00;98561.53;5090392;28;20219;-57
2024/01/09 05:49:06;;;;;;;17.88;11.25;;;;;;;0.91;100.00;98498.84;5091982;28;20305;-57
2024/01/09 05:51:32;;;;;;;16.20;10.82;;;;;;;0.64;100.00;98469.91;5095255;28;20341;-57
2024/01/09 05:53:58;;;;;;;16.45;10.57;;;;;;;1.15;100.00;98567.75;5095023;28;20267;-57
2024/01/09 05:56:23;;;;;;;17.42;11.45;;;;;;;0.38;100.00;98452.00;5094981;28;20792;-57
2024/01/09 05:58:49;;;;;;;18.27;11.23;;;;;;;1.04;100.00;98549.41;5095085;28;20176;-57
2024/01/09 06:01:14;;;;;;;16.02;10.65;;;;;;;0.87;100.00;98513.38;5094964;28;20176;-57
2024/01/09 06:03:40;;;;;;;20.23;12.73;;;;;;;0.96;100.00;98536.06;5094911;28;20219;-57
2024/01/09 06:06:05;;;;;;;16.10;11.77;;;;;;;0.62;100.00;98499.69;5094898;28;20198;-57
2024/01/09 06:08:30;;;;;;;17.10;10.63;;;;;;;0.48;100.00;98476.31;5094884;28;20176;-57
2024/01/09 06:10:56;;;;;;;16.52;11.20;;;;;;;0.44;100.00;98487.47;5094973;28;20283;-57
2024/01/09 06:13:21;;;;;;;17.75;11.93;;;;;;;0.53;100.00;98492.28;5094792;28;20627;-57
2024/01/09 06:15:47;;;;;;;15.90;12.40;;;;;;;0.64;100.00;98537.81;5094643;28;20639;-57
2024/01/09 06:18:12;;;;;;;15.73;11.02;;;;;;;0.63;100.00;98559.91;5094189;28;20655;-57
2024/01/09 06:20:38;;;;;;;21.65;12.93;;;;;;;0.79;100.00;98561.16;5094439;28;20195;-57
2024/01/09 06:23:03;;;;;;;18.45;12.05;;;;;;;1.03;100.00;98595.28;5094592;28;20165;-57
2024/01/09 06:25:29;;;;;;;19.50;10.57;;;;;;;0.65;100.00;98519.94;5093614;28;20206;-57
2024/01/09 06:27:54;;;;;;;16.52;11.38;;;;;;;0.53;100.00;98537.28;5094757;28;20212;-57
2024/01/09 06:30:20;;;;;;;17.35;12.45;;;;;;;0.88;100.00;98588.91;5094142;28;20629;-58
2024/01/09 06:32:45;;;;;;;17.45;12.55;;;;;;;0.98;100.00;98590.31;5094423;28;20226;-57
2024/01/09 06:35:11;;;;;;;18.88;12.45;;;;;;;0.90;100.00;98587.16;5093963;28;20245;-57
2024/01/09 06:37:36;;;;;;;21.13;13.63;;;;;;;0.23;100.00;98515.16;5094310;28;20256;-57
2024/01/09 06:40:02;;;;;;;21.33;13.77;;;;;;;0.24;100.00;98532.13;5094316;28;20199;-57
2024/01/09 06:42:27;;;;;;;17.10;11.52;;;;;;;0.18;100.00;98540.72;5094195;28;20184;-57
2024/01/09 06:44:52;;;;;;;20.08;12.98;;;;;;;0.38;100.00;98597.03;5093704;28;20180;-57
2024/01/09 06:47:18;;;;;;;19.90;12.00;;;;;;;0.22;100.00;98562.69;5093700;28;20173;-57
2024/01/09 06:49:43;;;;;;;16.98;11.45;;;;;;;0.08;100.00;98551.19;5094055;28;20180;-58
2024/01/09 06:52:09;;;;;;;18.83;12.63;;;;;;;0.20;100.00;98561.91;5093931;28;20208;-58
2024/01/09 06:54:35;;;;;;;22.88;13.18;;;;;;;0.05;100.00;98571.59;5093685;28;20634;-57
2024/01/09 06:57:00;;;;;;;24.38;13.85;;;;;;;0.63;100.00;98656.63;5093925;28;20181;-57
2024/01/09 06:59:26;;;;;;;20.83;13.30;;;;;;;0.81;100.00;98647.66;5093762;28;20263;-57
2024/01/09 07:01:51;;;;;;;22.52;14.07;;;;;;;0.90;100.00;98655.09;5093767;28;20168;-58
2024/01/09 07:04:17;;;;;;;19.85;13.32;;;;;;;0.46;100.00;98556.97;5094102;28;20176;-56
2024/01/09 07:06:42;;;;;;;22.50;14.57;;;;;;;0.65;100.00;98601.41;5093724;28;20247;-56
2024/01/09 07:09:08;;;;;;;21.77;13.80;;;;;;;0.48;100.00;98570.47;5093616;28;20612;-56
2024/01/09 07:11:33;;;;;;;24.55;15.68;;;;;;;0.81;100.00;98653.59;5093549;28;20234;-56
2024/01/09 07:14:00;;;;;;;24.02;15.98;;;;;;;0.85;100.00;98670.50;5093558;28;20594;-57
2024/01/09 07:16:26;;;;;;;28.08;16.83;;;;;;;0.85;100.00;98680.69;5093039;28;20229;-56
2024/01/09 07:18:52;;;;;;;24.20;15.40;;;;;;;0.52;100.00;98609.41;5093415;28;20670;-57
2024/01/09 07:21:17;;;;;;;22.88;13.88;;;;;;;0.42;100.00;98570.63;5093691;28;20184;-57
2024/01/09 07:23:44;;;;;;;24.80;15.35;;;;;;;0.72;100.00;98613.09;5093111;28;20181;-57
2024/01/09 07:26:09;;;;;;;45.53;27.75;;;;;;;0.54;100.00;98593.22;5093359;28;20675;-57
2024/01/09 07:28:35;;;;;;;29.92;19.63;;;;;;;0.92;100.00;98641.44;5093244;28;20175;-57
2024/01/09 07:31:02;;;;;;;31.55;19.25;;;;;;;0.70;100.00;98630.13;5092905;28;20200;-57
2024/01/09 07:33:28;;;;;;;29.55;16.70;;;;;;;1.03;100.00;98698.03;5093106;28;20706;-58
2024/01/09 07:35:53;;;;;;;31.10;18.15;;;;;;;0.37;100.00;98664.06;5093163;28;20211;-55
2024/01/09 07:38:23;;;;;;;27.23;18.15;;;;;;;0.69;100.00;98704.00;5093137;28;20177;-56
2024/01/09 07:40:49;;;;;;;33.13;20.70;;;;;;;0.59;100.00;98672.84;5093040;28;20234;-56
2024/01/09 07:43:15;;;;;;;26.77;18.15;;;;;;;1.06;100.00;98727.69;5050252;28;20190;-56
2024/01/09 07:45:41;;;;;;;26.42;15.68;;;;;;;0.94;100.00;98700.78;5050637;28;20188;-56
2024/01/09 07:48:06;;;;;;;27.15;16.38;;;;;;;0.93;100.00;98719.50;5050327;28;20190;-56
2024/01/09 07:50:32;;;;;;;38.28;22.05;;;;;;;0.66;100.00;98682.00;5050278;28;20192;-56
2024/01/09 07:52:58;;;;;;;46.17;24.20;;;;;;;-0.05;100.00;98621.84;5050103;28;20182;-56
2024/01/09 07:55:25;;;;;;;61.65;28.08;;;;;;;0.02;100.00;98668.31;5050223;28;20219;-56
2024/01/09 07:57:50;;;;;;;29.05;16.30;;;;;;;0.09;100.00;98700.38;5038970;28;20272;-57
2024/01/09 08:00:16;;;;;;;54.92;26.42;;;;;;;-0.50;100.00;98622.03;5049901;28;20704;-57
2024/01/09 08:02:41;;;;;;;171.93;70.05;;;;;;;-0.13;100.00;98679.66;5049666;28;20209;-57
2024/01/09 08:05:07;;;;;;;107.70;45.53;;;;;;;-0.48;100.00;98638.06;5049778;28;20241;-57
2024/01/09 08:07:33;;;;;;;54.08;27.02;;;;;;;-0.10;100.00;98699.09;5049980;28;20178;-57
2024/01/09 08:09:58;;;;;;;66.75;28.98;;;;;;;-0.18;100.00;98697.59;5049632;28;20272;-57
2024/01/09 08:12:25;;;;;;;115.35;45.53;;;;;;;-0.28;100.00;98705.41;5048896;28;20206;-57
2024/01/09 08:14:50;;;;;;;83.28;36.50;;;;;;;-0.08;100.00;98699.09;5081524;28;20250;-57
2024/01/09 08:17:16;;;;;;;51.42;25.02;;;;;;;0.27;100.00;98743.19;5091967;28;20581;-57
2024/01/09 08:19:42;;;;;;;144.35;56.30;;;;;;;-0.40;100.00;98664.19;5092137;28;20188;-56
2024/01/09 08:22:08;;;;;;;74.85;33.53;;;;;;;-0.63;100.00;98624.88;5092105;28;20176;-57
2024/01/09 08:24:33;;;;;;;49.35;31.90;;;;;;;-0.07;100.00;98735.47;5092038;28;20204;-57
2024/01/09 08:26:59;;;;;;;104.05;61.58;;;;;;;0.01;100.00;98764.13;5092016;28;20176;-57
2024/01/09 08:29:27;;;;;;;49.13;30.02;;;;;;;-0.27;100.00;98719.78;5091964;28;20258;-57
2024/01/09 08:31:53;;;;;;;52.70;33.40;;;;;;;0.06;100.00;98767.41;5091540;28;20305;-57
2024/01/09 08:34:19;;;;;;;23.60;14.15;;;;;;;-0.44;100.00;98672.72;5091940;28;20309;-57
2024/01/09 08:36:45;;;;;;;103.25;45.50;;;;;;;-0.46;100.00;98704.13;5091783;28;20172;-57
2024/01/09 08:39:12;;;;;;;51.40;27.67;;;;;;;-0.39;100.00;98696.34;5091751;28;20180;-57
2024/01/09 08:41:37;;;;;;;189.30;78.20;;;;;;;0.26;100.00;98806.00;5091646;28;20176;-57
2024/01/09 08:44:03;;;;;;;206.45;83.60;;;;;;;-0.02;100.00;98733.69;5091712;28;20643;-57
2024/01/09 08:46:28;;;;;;;116.95;50.53;;;;;;;-0.31;100.00;98688.56;5091740;28;20202;-57
2024/01/09 08:48:55;;;;;;;46.92;22.98;;;;;;;-0.13;100.00;98683.91;5091696;28;20187;-57
2024/01/09 08:51:20;;;;;;;77.55;35.28;;;;;;;0.05;100.00;98683.50;5091570;28;20208;-57
2024/01/09 08:53:45;;;;;;;19.75;12.70;;;;;;;0.71;100.00;98776.09;5091619;28;20613;-57
2024/01/09 08:56:11;;;;;;;27.58;14.02;;;;;;;0.42;100.00;98736.03;5091257;28;20551;-58
2024/01/09 08:58:36;;;;;;;14.57;9.70;;;;;;;0.79;100.00;98785.25;5091247;28;20194;-56
2024/01/09 09:01:03;;;;;;;15.55;9.82;;;;;;;0.56;100.00;98786.63;5091218;28;20168;-56
2024/01/09 09:03:28;;;;;;;17.25;9.80;;;;;;;0.56;100.00;98779.00;5091525;28;20215;-57
2024/01/09 09:05:54;;;;;;;13.93;9.13;;;;;;;-0.17;100.00;98683.13;5091501;28;20604;-57
2024/01/09 09:08:21;;;;;;;14.95;9.50;;;;;;;0.32;100.00;98779.56;5091173;28;20176;-57
2024/01/09 09:10:46;;;;;;;15.45;9.70;;;;;;;0.24;100.00;98766.19;5091539;28;20253;-56
2024/01/09 09:13:12;;;;;;;18.50;13.07;;;;;;;0.02;100.00;98714.09;5091337;28;20172;-56
2024/01/09 09:15:37;;;;;;;101.07;40.47;;;;;;;0.10;100.00;98774.09;5091026;28;20180;-57
2024/01/09 09:18:03;;;;;;;23.73;12.07;;;;;;;-0.21;100.00;98706.94;5091275;28;20267;-57
2024/01/09 09:20:28;;;;;;;28.70;13.00;;;;;;;-0.45;100.00;98660.03;5091365;28;20174;-56
2024/01/09 09:22:54;;;;;;;148.90;53.20;;;;;;;-0.34;100.00;98696.25;5091557;28;20216;-56
2024/01/09 09:25:19;;;;;;;58.28;25.02;;;;;;;-0.54;100.00;98711.06;5095561;28;20187;-56
2024/01/09 09:27:45;;;;;;;65.47;26.95;;;;;;;-0.15;100.00;98767.00;5095435;28;20177;-56
2024/01/09 09:30:12;;;;;;;68.97;29.67;;;;;;;-0.44;100.00;98748.13;5095304;28;20226;-56
2024/01/09 09:32:38;;;;;;;43.83;21.35;;;;;;;-0.35;100.00;98722.53;5095268;28;20208;-57
2024/01/09 09:35:04;;;;;;;23.25;13.15;;;;;;;-0.48;100.00;98688.09;5095380;28;20172;-57
2024/01/09 09:37:30;;;;;;;38.38;17.30;;;;;;;-0.28;100.00;98728.28;5095227;28;20624;-57
2024/01/09 09:39:55;;;;;;;65.47;28.05;;;;;;;-0.46;100.00;98709.19;5095195;28;20654;-57
2024/01/09 09:42:22;;;;;;;24.23;14.85;;;;;;;-0.52;100.00;98691.53;5095213;28;20196;-57
2024/01/09 09:44:54;;;;;;;15.85;9.43;;;;;;;0.21;100.00;98806.94;5095082;28;20173;-58
2024/01/09 09:47:21;;;;;;;26.08;13.60;;;;;;;0.22;100.00;98804.38;5095184;28;20247;-58
2024/01/09 09:49:48;;;;;;;133.80;43.35;;;;;;;-0.45;100.00;98718.50;5095023;28;20255;-57
2024/01/09 09:52:14;;;;;;;36.05;16.95;;;;;;;-0.49;100.00;98739.75;5094863;28;20207;-57
2024/01/09 09:54:41;;;;;;;22.95;12.52;;;;;;;0.08;100.00;98816.53;5095023;28;20176;-57
2024/01/09 09:57:06;;;;;;;57.33;23.33;;;;;;;-0.40;100.00;98749.75;5094698;28;21245;-56
2024/01/09 09:59:32;;;;;;;17.38;9.15;;;;;;;0.04;100.00;98799.66;5094884;28;20256;-57
2024/01/09 10:02:03;;;;;;;56.13;21.00;;;;;;;-0.36;100.00;98708.16;5094792;28;20246;-57
2024/01/09 10:04:34;;;;;;;19.52;11.63;;;;;;;-0.35;100.00;98740.31;5094899;28;20222;-56
2024/01/09 10:07:02;;;;;;;24.08;13.73;;;;;;;-0.71;100.00;98696.13;5094764;28;20602;-56
2024/01/09 10:09:32;;;;;;;23.05;13.10;;;;;;;-0.05;100.00;98801.56;5094735;28;20206;-57
2024/01/09 10:11:57;;;;;;;45.22;19.63;;;;;;;-0.07;100.00;98800.75;5094295;28;20574;-56
2024/01/09 10:14:23;;;;;;;15.93;8.35;;;;;;;-0.18;100.00;98791.66;5094207;28;20187;-57
2024/01/09 10:16:55;;;;;;;40.80;17.63;;;;;;;-0.19;100.00;98821.31;5094478;28;20196;-56
2024/01/09 10:19:24;;;;;;;19.58;11.18;;;;;;;-0.23;100.00;98803.63;5093131;28;20199;-56
2024/01/09 10:21:50;;;;;;;13.57;8.80;;;;;;;-0.33;100.00;98813.16;5094098;28;20176;-56
2024/01/09 10:24:16;;;;;;;10.90;7.25;;;;;;;-1.04;100.00;98696.78;5094362;28;20175;-56
2024/01/09 10:26:43;;;;;;;18.48;10.60;;;;;;;-0.53;100.00;98807.56;5093900;28;20597;-55
2024/01/09 10:29:12;;;;;;;14.32;9.90;;;;;;;-0.49;100.00;98801.59;5051569;28;20186;-56
2024/01/09 10:31:39;;;;;;;11.77;8.30;;;;;;;-1.13;100.00;98718.94;5051641;28;20214;-56
2024/01/09 10:34:05;;;;;;;23.15;13.00;;;;;;;-0.84;100.00;98801.38;5051631;28;20201;-56
2024/01/09 10:36:31;;;;;;;28.65;15.75;;;;;;;-1.23;100.00;98758.06;5044368;28;20275;-56
2024/01/09 10:39:09;;;;;;;15.27;11.10;;;;;;;-1.26;100.00;98764.03;5031888;28;20194;-56
2024/01/09 10:41:34;;;;;;;15.77;10.73;;;;;;;-1.42;100.00;98721.16;5031351;28;20272;-56
2024/01/09 10:44:00;;;;;;;19.50;10.90;;;;;;;-0.86;100.00;98807.34;5031389;28;20312;-56
2024/01/09 10:46:26;;;;;;;19.17;11.60;;;;;;;-1.26;100.00;98753.03;5031391;28;20556;-56
2024/01/09 10:48:53;;;;;;;14.13;9.68;;;;;;;-1.04;100.00;98774.66;5031232;28;20201;-56
2024/01/09 10:51:22;;;;;;;17.52;10.23;;;;;;;-0.79;100.00;98822.47;5031073;28;20232;-56
2024/01/09 10:53:50;;;;;;;16.17;10.20;;;;;;;-1.32;100.00;98738.75;5031165;28;20718;-56
2024/01/09 10:56:18;;;;;;;14.50;9.88;;;;;;;-1.12;100.00;98756.19;5031197;28;20375;-56
2024/01/09 10:58:49;;;;;;;18.25;10.77;;;;;;;-0.34;100.00;98846.22;5031152;28;20171;-57
2024/01/09 11:01:15;;;;;;;13.57;9.02;;;;;;;-0.39;100.00;98815.81;5071660;28;20193;-56
2024/01/09 11:03:41;;;;;;;16.33;11.10;;;;;;;-0.52;100.00;98781.31;5073395;28;20176;-56
2024/01/09 11:06:08;;;;;;;14.38;9.13;;;;;;;-0.29;100.00;98824.09;5073405;28;20169;-57
2024/01/09 11:08:37;;;;;;;12.85;8.93;;;;;;;-0.37;100.00;98846.28;5010951;28;20191;-56
2024/01/09 11:11:07;;;;;;;15.20;8.43;;;;;;;-0.67;100.00;98776.50;5010975;28;20223;-57
2024/01/09 11:13:37;;;;;;;10.77;6.85;;;;;;;-0.05;100.00;98844.81;5011096;28;20282;-56
2024/01/09 11:16:06;;;;;;;10.98;7.57;;;;;;;-0.66;100.00;98746.88;5011034;28;20282;-57